createdAt,value
2022-12-08T00:02:34.000Z,-8.92
2022-12-08T00:07:35.000Z,-8.89
2022-12-08T00:12:34.000Z,-8.95
2022-12-08T00:17:35.000Z,-8.96
2022-12-08T00:22:34.000Z,-8.95
2022-12-08T00:27:35.000Z,-8.92
2022-12-08T00:32:34.000Z,-8.92
2022-12-08T00:37:35.000Z,-8.91
2022-12-08T00:42:35.000Z,-8.93
2022-12-08T00:47:35.000Z,-8.87
2022-12-08T00:52:34.000Z,-8.84
2022-12-08T00:57:35.000Z,-8.82
2022-12-08T01:02:34.000Z,-8.85
2022-12-08T01:07:35.000Z,-8.77
2022-12-08T01:12:34.000Z,-8.86
2022-12-08T01:17:35.000Z,-8.91
2022-12-08T01:22:34.000Z,-8.86
2022-12-08T01:27:35.000Z,-8.89
2022-12-08T01:37:35.000Z,-8.89
2022-12-08T01:42:34.000Z,-8.88
2022-12-08T01:47:34.000Z,-8.94
2022-12-08T01:52:35.000Z,-8.98
2022-12-08T01:57:35.000Z,-8.97
2022-12-08T02:02:34.000Z,-9.01
2022-12-08T02:07:34.000Z,-9
2022-12-08T02:12:35.000Z,-8.93
2022-12-08T02:17:35.000Z,-8.87
2022-12-08T02:22:35.000Z,-8.87
2022-12-08T02:27:34.000Z,-8.83
2022-12-08T02:32:35.000Z,-8.94
2022-12-08T02:37:34.000Z,-8.99
2022-12-08T02:42:35.000Z,-8.92
2022-12-08T02:47:35.000Z,-9.08
2022-12-08T02:52:34.000Z,-9.09
2022-12-08T02:57:35.000Z,-9.2
2022-12-08T03:02:35.000Z,-9.08
2022-12-08T03:07:34.000Z,-9.04
2022-12-08T03:12:35.000Z,-9.01
2022-12-08T03:17:35.000Z,-9.08
2022-12-08T03:22:34.000Z,-9.08
2022-12-08T03:27:35.000Z,-9.02
2022-12-08T03:32:34.000Z,-9.01
2022-12-08T03:37:35.000Z,-9.01
2022-12-08T03:42:34.000Z,-8.96
2022-12-08T03:47:34.000Z,-8.88
2022-12-08T03:52:35.000Z,-8.84
2022-12-08T03:57:35.000Z,-8.93
2022-12-08T04:02:34.000Z,-8.82
2022-12-08T04:07:34.000Z,-8.94
2022-12-08T04:12:35.000Z,-9
2022-12-08T04:17:35.000Z,-8.93
2022-12-08T04:27:34.000Z,-8.81
2022-12-08T04:32:35.000Z,-8.81
2022-12-08T04:37:34.000Z,-8.94
2022-12-08T04:42:35.000Z,-8.9
2022-12-08T04:47:34.000Z,-8.9
2022-12-08T04:52:35.000Z,-8.97
2022-12-08T04:57:34.000Z,-8.89
2022-12-08T05:02:35.000Z,-9
2022-12-08T05:07:34.000Z,-9.02
2022-12-08T05:12:34.000Z,-9.04
2022-12-08T05:17:34.000Z,-9.06
2022-12-08T05:22:34.000Z,-8.99
2022-12-08T05:27:35.000Z,-8.96
2022-12-08T05:32:34.000Z,-9.04
2022-12-08T05:37:34.000Z,-9
2022-12-08T05:42:35.000Z,-9.1
2022-12-08T05:47:34.000Z,-9.03
2022-12-08T05:52:34.000Z,-8.98
2022-12-08T05:57:34.000Z,-9
2022-12-08T06:02:35.000Z,-9
2022-12-08T06:07:34.000Z,-9.1
2022-12-08T06:12:34.000Z,-9.09
2022-12-08T06:17:35.000Z,-9.1
2022-12-08T06:22:34.000Z,-9.11
2022-12-08T06:27:34.000Z,-9.14
2022-12-08T06:32:37.000Z,-9.1
2022-12-08T06:37:34.000Z,-9.03
2022-12-08T06:47:36.000Z,-8.93
2022-12-08T06:52:34.000Z,-9.03
2022-12-08T06:57:34.000Z,-8.92
2022-12-08T07:02:35.000Z,-8.96
2022-12-08T07:07:34.000Z,-9
2022-12-08T07:12:34.000Z,-8.95
2022-12-08T07:17:35.000Z,-8.77
2022-12-08T07:22:35.000Z,-8.73
2022-12-08T07:27:35.000Z,-8.71
2022-12-08T07:32:34.000Z,-8.62
2022-12-08T07:37:35.000Z,-8.42
2022-12-08T07:42:34.000Z,-8.42
2022-12-08T07:47:35.000Z,-8.37
2022-12-08T07:52:34.000Z,-8.41
2022-12-08T07:57:35.000Z,-8.27
2022-12-08T08:02:36.000Z,-8.23
2022-12-08T08:07:35.000Z,-8.28
2022-12-08T08:12:42.000Z,-8.19
2022-12-08T08:17:35.000Z,-8.17
2022-12-08T08:22:35.000Z,-8.25
2022-12-08T08:27:34.000Z,-8.19
2022-12-08T08:32:35.000Z,-8.09
2022-12-08T08:37:35.000Z,-8.05
2022-12-08T08:42:34.000Z,-8.1
2022-12-08T08:47:35.000Z,-7.87
2022-12-08T08:57:36.000Z,-7.42
2022-12-08T09:02:35.000Z,-7.47
2022-12-08T09:07:34.000Z,-7.62
2022-12-08T09:12:35.000Z,-7.62
2022-12-08T09:17:35.000Z,-7.71
2022-12-08T09:22:35.000Z,-7.61
2022-12-08T09:27:35.000Z,-7.59
2022-12-08T09:32:35.000Z,-7.53
2022-12-08T09:37:35.000Z,-7.41
2022-12-08T09:42:35.000Z,-7.23
2022-12-08T09:47:35.000Z,-7.21
2022-12-08T09:52:34.000Z,-7.38
2022-12-08T09:57:35.000Z,-7.39
2022-12-08T10:07:34.000Z,-7.22
2022-12-08T10:12:34.000Z,-7.15
2022-12-08T10:17:34.000Z,-7.14
2022-12-08T10:22:35.000Z,-7.13
2022-12-08T10:27:35.000Z,-7.16
2022-12-08T10:32:34.000Z,-7.16
2022-12-08T10:37:35.000Z,-7.15
2022-12-08T10:42:34.000Z,-7.13
2022-12-08T10:52:34.000Z,-7.09
2022-12-08T10:57:35.000Z,-6.94
2022-12-08T11:02:34.000Z,-6.97
2022-12-08T11:07:35.000Z,-6.88
2022-12-08T11:12:35.000Z,-6.81
2022-12-08T11:17:35.000Z,-6.86
2022-12-08T11:22:35.000Z,-6.76
2022-12-08T11:27:35.000Z,-6.76
2022-12-08T11:32:34.000Z,-6.83
2022-12-08T11:42:35.000Z,-6.88
2022-12-08T11:47:35.000Z,-6.93
2022-12-08T11:52:35.000Z,-6.97
2022-12-08T11:57:35.000Z,-6.95
2022-12-08T12:02:34.000Z,-6.96
2022-12-08T12:07:36.000Z,-6.9
2022-12-08T12:12:35.000Z,-6.82
2022-12-08T12:17:35.000Z,-6.84
2022-12-08T12:22:34.000Z,-6.85
2022-12-08T12:27:34.000Z,-6.85
2022-12-08T12:37:35.000Z,-6.85
2022-12-08T12:42:34.000Z,-6.83
2022-12-08T12:47:35.000Z,-6.78
2022-12-08T12:52:34.000Z,-6.73
2022-12-08T12:57:35.000Z,-6.71
2022-12-08T13:02:35.000Z,-6.61
2022-12-08T13:07:34.000Z,-6.6
2022-12-08T13:12:34.000Z,-6.57
2022-12-08T13:17:35.000Z,-6.57
2022-12-08T13:22:34.000Z,-6.57
2022-12-08T13:27:35.000Z,-6.6
2022-12-08T13:32:35.000Z,-6.6
2022-12-08T13:37:35.000Z,-6.59
2022-12-08T13:42:35.000Z,-6.59
2022-12-08T13:47:44.000Z,-6.59
2022-12-08T13:53:04.000Z,-6.45
2022-12-08T14:02:35.000Z,-6.44
2022-12-08T14:17:35.000Z,-6.54
2022-12-08T14:22:35.000Z,-6.46
2022-12-08T14:27:34.000Z,-6.46
2022-12-08T14:42:34.000Z,-6.36
2022-12-08T14:47:35.000Z,-6.16
2022-12-08T14:52:35.000Z,-6.23
2022-12-08T14:57:35.000Z,-6.2
2022-12-08T15:02:35.000Z,-6.13
2022-12-08T15:07:34.000Z,-6.15
2022-12-08T15:12:37.000Z,-6.08
2022-12-08T15:17:35.000Z,-5.98
2022-12-08T15:22:35.000Z,-6.04
2022-12-08T15:27:35.000Z,-6.13
2022-12-08T15:32:34.000Z,-6.03
2022-12-08T15:37:35.000Z,-6
2022-12-08T15:42:35.000Z,-5.83
2022-12-08T15:47:35.000Z,-5.72
2022-12-08T15:52:35.000Z,-5.72
2022-12-08T15:58:27.000Z,-5.85
2022-12-08T16:12:35.000Z,-5.65
2022-12-08T16:17:34.000Z,-5.69
2022-12-08T16:23:17.000Z,-5.65
2022-12-08T16:28:11.000Z,-5.5
2022-12-08T16:37:35.000Z,-5.3
2022-12-08T16:42:35.000Z,-5.21
2022-12-08T16:47:34.000Z,-5.31
2022-12-08T16:52:34.000Z,-5.24
2022-12-08T16:57:35.000Z,-5.32
2022-12-08T17:02:35.000Z,-5.38
2022-12-08T17:07:35.000Z,-5.33
2022-12-08T17:12:35.000Z,-5.31
2022-12-08T17:17:34.000Z,-5.32
2022-12-08T17:22:34.000Z,-5.3
2022-12-08T17:27:34.000Z,-5.17
2022-12-08T17:32:35.000Z,-5.09
2022-12-08T17:37:35.000Z,-4.93
2022-12-08T17:42:34.000Z,-5.03
2022-12-08T17:47:35.000Z,-4.97
2022-12-08T17:52:35.000Z,-4.97
2022-12-08T17:57:35.000Z,-4.94
2022-12-08T18:02:34.000Z,-4.9
2022-12-08T18:07:35.000Z,-4.79
2022-12-08T18:12:35.000Z,-4.81
2022-12-08T18:17:34.000Z,-4.7
2022-12-08T18:22:34.000Z,-4.75
2022-12-08T18:27:35.000Z,-4.81
2022-12-08T18:32:34.000Z,-4.92
2022-12-08T18:37:34.000Z,-4.72
2022-12-08T18:42:34.000Z,-4.66
2022-12-08T18:47:35.000Z,-4.65
2022-12-08T18:52:42.000Z,-4.7
2022-12-08T18:57:35.000Z,-4.59
2022-12-08T19:02:35.000Z,-4.33
2022-12-08T19:07:35.000Z,-4.33
2022-12-08T19:12:34.000Z,-4.35
2022-12-08T19:17:35.000Z,-4.44
2022-12-08T19:22:35.000Z,-4.4
2022-12-08T19:27:35.000Z,-4.28
2022-12-08T19:32:35.000Z,-4.15
2022-12-08T19:37:34.000Z,-4.2
2022-12-08T19:42:34.000Z,-4.24
2022-12-08T19:47:35.000Z,-4.19
2022-12-08T19:52:35.000Z,-4.06
2022-12-08T20:07:34.000Z,-4.05
2022-12-08T20:12:34.000Z,-4.07
2022-12-08T20:17:35.000Z,-4.29
2022-12-08T20:22:34.000Z,-4.34
2022-12-08T20:27:34.000Z,-4.37
2022-12-08T20:32:35.000Z,-4.34
2022-12-08T20:37:35.000Z,-4.4
2022-12-08T20:42:35.000Z,-4.47
2022-12-08T20:47:35.000Z,-4.62
2022-12-08T20:52:35.000Z,-4.64
2022-12-08T20:57:34.000Z,-4.51
2022-12-08T21:02:35.000Z,-4.5
2022-12-08T21:07:35.000Z,-4.61
2022-12-08T21:12:35.000Z,-4.64
2022-12-08T21:17:35.000Z,-4.64
2022-12-08T21:22:35.000Z,-4.56
2022-12-08T21:27:35.000Z,-4.47
2022-12-08T21:32:40.000Z,-4.31
2022-12-08T21:37:35.000Z,-4.25
2022-12-08T21:42:42.000Z,-4.2
2022-12-08T21:47:35.000Z,-4.22
2022-12-08T21:52:35.000Z,-4.22
2022-12-08T21:57:35.000Z,-4.26
2022-12-08T22:02:35.000Z,-4.33
2022-12-08T22:07:35.000Z,-4.27
2022-12-08T22:12:34.000Z,-4.2
2022-12-08T22:17:35.000Z,-4.06
2022-12-08T22:22:35.000Z,-3.97
2022-12-08T22:27:35.000Z,-4.09
2022-12-08T22:32:35.000Z,-4.09
2022-12-08T22:37:34.000Z,-4.17
2022-12-08T22:42:34.000Z,-4.12
2022-12-08T22:52:35.000Z,-3.97
2022-12-08T22:57:35.000Z,-3.92
2022-12-08T23:02:35.000Z,-4.03
2022-12-08T23:07:34.000Z,-3.96
2022-12-08T23:12:35.000Z,-4
2022-12-08T23:17:35.000Z,-4.06
2022-12-08T23:22:35.000Z,-4.11
2022-12-08T23:27:35.000Z,-3.95
2022-12-08T23:32:36.000Z,-3.87
2022-12-08T23:37:35.000Z,-3.87
2022-12-08T23:42:35.000Z,-3.97
2022-12-08T23:47:35.000Z,-3.97
2022-12-08T23:52:34.000Z,-3.95
2022-12-08T23:57:34.000Z,-3.95
